sensor_id;sensor_type;location;lat;lon;timestamp;P1;durP1;ratioP1;P2;durP2;ratioP2
26864;SDS011;40618;51.166;10.322;2023-08-21T00:01:20;4.75;;;4.28;;
26864;SDS011;40618;51.166;10.322;2023-08-21T00:03:46;6.05;;;4.05;;
26864;SDS011;40618;51.166;10.322;2023-08-21T00:06:12;4.90;;;4.03;;
26864;SDS011;40618;51.166;10.322;2023-08-21T00:08:38;6.78;;;4.38;;
26864;SDS011;40618;51.166;10.322;2023-08-21T00:11:03;5.72;;;4.03;;
26864;SDS011;40618;51.166;10.322;2023-08-21T00:13:29;4.95;;;4.22;;
26864;SDS011;40618;51.166;10.322;2023-08-21T00:15:55;8.30;;;4.07;;
26864;SDS011;40618;51.166;10.322;2023-08-21T00:18:21;5.65;;;4.55;;
26864;SDS011;40618;51.166;10.322;2023-08-21T00:20:47;7.13;;;3.47;;
26864;SDS011;40618;51.166;10.322;2023-08-21T00:23:13;6.97;;;4.13;;
26864;SDS011;40618;51.166;10.322;2023-08-21T00:25:38;8.25;;;3.47;;
26864;SDS011;40618;51.166;10.322;2023-08-21T00:28:04;6.03;;;4.05;;
26864;SDS011;40618;51.166;10.322;2023-08-21T00:30:30;6.00;;;4.07;;
26864;SDS011;40618;51.166;10.322;2023-08-21T00:32:56;7.57;;;3.88;;
26864;SDS011;40618;51.166;10.322;2023-08-21T00:35:22;4.57;;;3.92;;
26864;SDS011;40618;51.166;10.322;2023-08-21T00:37:47;6.20;;;3.97;;
26864;SDS011;40618;51.166;10.322;2023-08-21T00:40:13;7.32;;;3.97;;
26864;SDS011;40618;51.166;10.322;2023-08-21T00:42:38;4.80;;;3.97;;
26864;SDS011;40618;51.166;10.322;2023-08-21T00:45:04;4.63;;;3.70;;
26864;SDS011;40618;51.166;10.322;2023-08-21T00:47:33;5.60;;;3.42;;
26864;SDS011;40618;51.166;10.322;2023-08-21T00:50:00;6.95;;;3.88;;
26864;SDS011;40618;51.166;10.322;2023-08-21T00:52:27;6.65;;;3.70;;
26864;SDS011;40618;51.166;10.322;2023-08-21T00:54:54;5.95;;;3.70;;
26864;SDS011;40618;51.166;10.322;2023-08-21T00:57:20;8.73;;;4.20;;
26864;SDS011;40618;51.166;10.322;2023-08-21T00:59:48;4.57;;;3.38;;
26864;SDS011;40618;51.166;10.322;2023-08-21T01:02:14;8.25;;;4.35;;
26864;SDS011;40618;51.166;10.322;2023-08-21T01:04:39;6.75;;;3.95;;
26864;SDS011;40618;51.166;10.322;2023-08-21T01:07:05;4.88;;;3.65;;
26864;SDS011;40618;51.166;10.322;2023-08-21T01:09:58;6.97;;;3.45;;
26864;SDS011;40618;51.166;10.322;2023-08-21T01:15:11;5.20;;;2.78;;
26864;SDS011;40618;51.166;10.322;2023-08-21T01:17:39;8.27;;;3.88;;
26864;SDS011;40618;51.166;10.322;2023-08-21T01:20:06;7.35;;;3.30;;
26864;SDS011;40618;51.166;10.322;2023-08-21T01:22:36;6.20;;;3.97;;
26864;SDS011;40618;51.166;10.322;2023-08-21T01:25:05;5.88;;;3.65;;
26864;SDS011;40618;51.166;10.322;2023-08-21T01:27:32;3.85;;;3.35;;
26864;SDS011;40618;51.166;10.322;2023-08-21T01:30:00;5.75;;;3.47;;
26864;SDS011;40618;51.166;10.322;2023-08-21T01:32:43;4.50;;;3.25;;
26864;SDS011;40618;51.166;10.322;2023-08-21T01:35:23;4.75;;;3.28;;
26864;SDS011;40618;51.166;10.322;2023-08-21T01:37:50;6.10;;;3.42;;
26864;SDS011;40618;51.166;10.322;2023-08-21T01:40:23;5.47;;;3.10;;
26864;SDS011;40618;51.166;10.322;2023-08-21T01:42:49;8.23;;;3.13;;
26864;SDS011;40618;51.166;10.322;2023-08-21T01:45:17;6.07;;;3.38;;
26864;SDS011;40618;51.166;10.322;2023-08-21T01:47:43;3.72;;;3.05;;
26864;SDS011;40618;51.166;10.322;2023-08-21T01:50:09;7.00;;;3.42;;
26864;SDS011;40618;51.166;10.322;2023-08-21T01:52:34;5.75;;;2.85;;
26864;SDS011;40618;51.166;10.322;2023-08-21T01:55:00;3.28;;;2.97;;
26864;SDS011;40618;51.166;10.322;2023-08-21T01:57:26;3.95;;;3.20;;
26864;SDS011;40618;51.166;10.322;2023-08-21T01:59:51;3.53;;;2.67;;
26864;SDS011;40618;51.166;10.322;2023-08-21T02:02:17;4.53;;;3.42;;
26864;SDS011;40618;51.166;10.322;2023-08-21T02:04:42;3.67;;;2.90;;
26864;SDS011;40618;51.166;10.322;2023-08-21T02:07:08;3.45;;;2.75;;
26864;SDS011;40618;51.166;10.322;2023-08-21T02:09:34;4.45;;;3.08;;
26864;SDS011;40618;51.166;10.322;2023-08-21T02:11:59;4.55;;;3.50;;
26864;SDS011;40618;51.166;10.322;2023-08-21T02:14:25;4.78;;;2.90;;
26864;SDS011;40618;51.166;10.322;2023-08-21T02:16:50;4.55;;;3.58;;
26864;SDS011;40618;51.166;10.322;2023-08-21T02:19:16;5.00;;;4.10;;
26864;SDS011;40618;51.166;10.322;2023-08-21T02:21:42;4.22;;;3.17;;
26864;SDS011;40618;51.166;10.322;2023-08-21T02:24:08;6.88;;;3.00;;
26864;SDS011;40618;51.166;10.322;2023-08-21T02:26:33;6.85;;;3.35;;
26864;SDS011;40618;51.166;10.322;2023-08-21T02:28:59;7.68;;;3.42;;
26864;SDS011;40618;51.166;10.322;2023-08-21T02:31:24;4.60;;;3.35;;
26864;SDS011;40618;51.166;10.322;2023-08-21T02:33:50;3.55;;;3.13;;
26864;SDS011;40618;51.166;10.322;2023-08-21T02:36:16;5.85;;;3.38;;
26864;SDS011;40618;51.166;10.322;2023-08-21T02:38:42;3.63;;;3.25;;
26864;SDS011;40618;51.166;10.322;2023-08-21T02:41:07;5.30;;;3.03;;
26864;SDS011;40618;51.166;10.322;2023-08-21T02:43:33;5.38;;;3.53;;
26864;SDS011;40618;51.166;10.322;2023-08-21T02:45:59;4.35;;;3.35;;
26864;SDS011;40618;51.166;10.322;2023-08-21T02:48:25;4.68;;;3.50;;
26864;SDS011;40618;51.166;10.322;2023-08-21T02:50:50;5.32;;;3.60;;
26864;SDS011;40618;51.166;10.322;2023-08-21T02:53:16;4.35;;;3.45;;
26864;SDS011;40618;51.166;10.322;2023-08-21T02:55:41;5.10;;;3.30;;
26864;SDS011;40618;51.166;10.322;2023-08-21T02:58:07;4.68;;;3.35;;
26864;SDS011;40618;51.166;10.322;2023-08-21T03:00:33;4.15;;;3.47;;
26864;SDS011;40618;51.166;10.322;2023-08-21T03:02:59;6.20;;;3.65;;
26864;SDS011;40618;51.166;10.322;2023-08-21T03:05:25;7.90;;;3.60;;
26864;SDS011;40618;51.166;10.322;2023-08-21T03:07:50;4.90;;;3.92;;
26864;SDS011;40618;51.166;10.322;2023-08-21T03:10:16;5.10;;;4.05;;
26864;SDS011;40618;51.166;10.322;2023-08-21T03:12:43;7.15;;;3.92;;
26864;SDS011;40618;51.166;10.322;2023-08-21T03:15:08;8.80;;;3.95;;
26864;SDS011;40618;51.166;10.322;2023-08-21T03:17:34;6.57;;;4.03;;
26864;SDS011;40618;51.166;10.322;2023-08-21T03:20:00;8.38;;;4.03;;
26864;SDS011;40618;51.166;10.322;2023-08-21T03:22:26;5.47;;;3.83;;
26864;SDS011;40618;51.166;10.322;2023-08-21T03:24:51;7.57;;;3.70;;
26864;SDS011;40618;51.166;10.322;2023-08-21T03:27:18;5.70;;;4.03;;
26864;SDS011;40618;51.166;10.322;2023-08-21T03:29:43;4.53;;;3.78;;
26864;SDS011;40618;51.166;10.322;2023-08-21T03:32:13;4.37;;;3.97;;
26864;SDS011;40618;51.166;10.322;2023-08-21T03:34:41;4.53;;;4.13;;
26864;SDS011;40618;51.166;10.322;2023-08-21T03:37:06;3.80;;;3.47;;
26864;SDS011;40618;51.166;10.322;2023-08-21T03:39:32;7.03;;;3.88;;
26864;SDS011;40618;51.166;10.322;2023-08-21T03:41:58;6.55;;;3.45;;
26864;SDS011;40618;51.166;10.322;2023-08-21T03:44:23;4.50;;;3.30;;
26864;SDS011;40618;51.166;10.322;2023-08-21T03:46:49;4.82;;;3.45;;
26864;SDS011;40618;51.166;10.322;2023-08-21T03:49:15;4.25;;;3.25;;
26864;SDS011;40618;51.166;10.322;2023-08-21T03:51:40;3.80;;;3.05;;
26864;SDS011;40618;51.166;10.322;2023-08-21T03:54:06;6.50;;;4.07;;
26864;SDS011;40618;51.166;10.322;2023-08-21T03:56:31;8.52;;;3.80;;
26864;SDS011;40618;51.166;10.322;2023-08-21T03:58:57;6.65;;;3.88;;
26864;SDS011;40618;51.166;10.322;2023-08-21T04:01:23;4.30;;;3.50;;
26864;SDS011;40618;51.166;10.322;2023-08-21T04:03:48;4.25;;;3.55;;
26864;SDS011;40618;51.166;10.322;2023-08-21T04:06:14;4.85;;;4.30;;
26864;SDS011;40618;51.166;10.322;2023-08-21T04:08:40;4.75;;;3.67;;
26864;SDS011;40618;51.166;10.322;2023-08-21T04:11:06;5.10;;;3.70;;
26864;SDS011;40618;51.166;10.322;2023-08-21T04:13:32;6.60;;;3.47;;
26864;SDS011;40618;51.166;10.322;2023-08-21T04:15:57;4.25;;;3.58;;
26864;SDS011;40618;51.166;10.322;2023-08-21T04:18:23;7.25;;;4.18;;
26864;SDS011;40618;51.166;10.322;2023-08-21T04:20:49;4.47;;;3.45;;
26864;SDS011;40618;51.166;10.322;2023-08-21T04:23:15;5.38;;;3.55;;
26864;SDS011;40618;51.166;10.322;2023-08-21T04:25:41;5.22;;;3.78;;
26864;SDS011;40618;51.166;10.322;2023-08-21T04:28:08;5.68;;;3.95;;
26864;SDS011;40618;51.166;10.322;2023-08-21T04:30:34;4.75;;;3.95;;
26864;SDS011;40618;51.166;10.322;2023-08-21T04:32:59;3.75;;;3.13;;
26864;SDS011;40618;51.166;10.322;2023-08-21T04:35:25;8.02;;;3.80;;
26864;SDS011;40618;51.166;10.322;2023-08-21T04:37:51;5.47;;;3.72;;
26864;SDS011;40618;51.166;10.322;2023-08-21T04:40:17;4.78;;;3.30;;
26864;SDS011;40618;51.166;10.322;2023-08-21T04:42:45;10.68;;;3.83;;
26864;SDS011;40618;51.166;10.322;2023-08-21T04:45:11;3.47;;;3.00;;
26864;SDS011;40618;51.166;10.322;2023-08-21T04:47:36;4.88;;;3.55;;
26864;SDS011;40618;51.166;10.322;2023-08-21T04:50:02;6.65;;;3.80;;
26864;SDS011;40618;51.166;10.322;2023-08-21T04:52:28;4.68;;;3.88;;
26864;SDS011;40618;51.166;10.322;2023-08-21T04:54:54;5.93;;;4.00;;
26864;SDS011;40618;51.166;10.322;2023-08-21T04:57:19;5.47;;;3.78;;
26864;SDS011;40618;51.166;10.322;2023-08-21T04:59:48;6.43;;;3.40;;
26864;SDS011;40618;51.166;10.322;2023-08-21T05:02:14;7.10;;;3.35;;
26864;SDS011;40618;51.166;10.322;2023-08-21T05:04:39;4.82;;;4.03;;
26864;SDS011;40618;51.166;10.322;2023-08-21T05:07:05;6.10;;;3.47;;
26864;SDS011;40618;51.166;10.322;2023-08-21T05:09:34;12.68;;;4.43;;
26864;SDS011;40618;51.166;10.322;2023-08-21T05:11:59;5.60;;;3.40;;
26864;SDS011;40618;51.166;10.322;2023-08-21T05:14:25;6.35;;;3.70;;
26864;SDS011;40618;51.166;10.322;2023-08-21T05:16:51;11.38;;;4.18;;
26864;SDS011;40618;51.166;10.322;2023-08-21T05:19:17;8.27;;;3.83;;
26864;SDS011;40618;51.166;10.322;2023-08-21T05:21:43;4.20;;;3.80;;
26864;SDS011;40618;51.166;10.322;2023-08-21T05:24:09;6.85;;;4.10;;
26864;SDS011;40618;51.166;10.322;2023-08-21T05:26:38;6.32;;;4.20;;
26864;SDS011;40618;51.166;10.322;2023-08-21T05:29:04;7.50;;;4.47;;
26864;SDS011;40618;51.166;10.322;2023-08-21T05:31:30;6.47;;;4.70;;
26864;SDS011;40618;51.166;10.322;2023-08-21T05:33:55;9.65;;;4.40;;
26864;SDS011;40618;51.166;10.322;2023-08-21T05:36:21;5.53;;;3.83;;
26864;SDS011;40618;51.166;10.322;2023-08-21T05:38:46;6.43;;;4.30;;
26864;SDS011;40618;51.166;10.322;2023-08-21T05:41:14;6.78;;;4.70;;
26864;SDS011;40618;51.166;10.322;2023-08-21T05:43:40;6.13;;;3.92;;
26864;SDS011;40618;51.166;10.322;2023-08-21T05:46:07;4.75;;;3.92;;
26864;SDS011;40618;51.166;10.322;2023-08-21T05:48:33;5.05;;;4.30;;
26864;SDS011;40618;51.166;10.322;2023-08-21T05:50:59;5.82;;;3.92;;
26864;SDS011;40618;51.166;10.322;2023-08-21T05:53:25;8.10;;;4.60;;
26864;SDS011;40618;51.166;10.322;2023-08-21T05:55:51;8.35;;;4.70;;
26864;SDS011;40618;51.166;10.322;2023-08-21T05:58:18;5.55;;;4.45;;
26864;SDS011;40618;51.166;10.322;2023-08-21T06:00:44;6.07;;;4.60;;
26864;SDS011;40618;51.166;10.322;2023-08-21T06:03:11;5.15;;;4.05;;
26864;SDS011;40618;51.166;10.322;2023-08-21T06:05:37;7.50;;;4.57;;
26864;SDS011;40618;51.166;10.322;2023-08-21T06:08:02;6.22;;;4.93;;
26864;SDS011;40618;51.166;10.322;2023-08-21T06:10:28;5.93;;;4.43;;
26864;SDS011;40618;51.166;10.322;2023-08-21T06:12:55;3.83;;;3.53;;
26864;SDS011;40618;51.166;10.322;2023-08-21T06:15:21;8.85;;;4.70;;
26864;SDS011;40618;51.166;10.322;2023-08-21T06:17:46;4.65;;;4.05;;
26864;SDS011;40618;51.166;10.322;2023-08-21T06:20:12;6.45;;;4.25;;
26864;SDS011;40618;51.166;10.322;2023-08-21T06:22:38;12.73;;;4.45;;
26864;SDS011;40618;51.166;10.322;2023-08-21T06:25:04;4.03;;;3.67;;
26864;SDS011;40618;51.166;10.322;2023-08-21T06:27:31;7.28;;;3.72;;
26864;SDS011;40618;51.166;10.322;2023-08-21T06:29:56;5.55;;;4.20;;
26864;SDS011;40618;51.166;10.322;2023-08-21T06:32:22;9.15;;;3.92;;
26864;SDS011;40618;51.166;10.322;2023-08-21T06:34:48;4.75;;;3.97;;
26864;SDS011;40618;51.166;10.322;2023-08-21T06:37:14;4.97;;;3.88;;
26864;SDS011;40618;51.166;10.322;2023-08-21T06:39:39;10.05;;;4.53;;
26864;SDS011;40618;51.166;10.322;2023-08-21T06:42:05;5.75;;;3.70;;
26864;SDS011;40618;51.166;10.322;2023-08-21T06:44:31;5.05;;;4.47;;
26864;SDS011;40618;51.166;10.322;2023-08-21T06:46:56;6.78;;;3.50;;
26864;SDS011;40618;51.166;10.322;2023-08-21T06:49:22;4.50;;;4.10;;
26864;SDS011;40618;51.166;10.322;2023-08-21T06:51:48;6.43;;;4.00;;
26864;SDS011;40618;51.166;10.322;2023-08-21T06:54:14;4.43;;;3.47;;
26864;SDS011;40618;51.166;10.322;2023-08-21T06:56:41;3.75;;;3.38;;
26864;SDS011;40618;51.166;10.322;2023-08-21T06:59:06;5.20;;;4.20;;
26864;SDS011;40618;51.166;10.322;2023-08-21T07:01:32;6.28;;;3.95;;
26864;SDS011;40618;51.166;10.322;2023-08-21T07:03:58;5.07;;;4.07;;
26864;SDS011;40618;51.166;10.322;2023-08-21T07:06:23;6.03;;;3.83;;
26864;SDS011;40618;51.166;10.322;2023-08-21T07:08:49;6.28;;;3.70;;
26864;SDS011;40618;51.166;10.322;2023-08-21T07:11:14;5.20;;;3.75;;
26864;SDS011;40618;51.166;10.322;2023-08-21T07:13:42;5.13;;;3.85;;
26864;SDS011;40618;51.166;10.322;2023-08-21T07:16:08;4.80;;;4.18;;
26864;SDS011;40618;51.166;10.322;2023-08-21T07:18:34;5.47;;;3.80;;
26864;SDS011;40618;51.166;10.322;2023-08-21T07:21:01;3.78;;;3.47;;
26864;SDS011;40618;51.166;10.322;2023-08-21T07:23:29;6.70;;;3.78;;
26864;SDS011;40618;51.166;10.322;2023-08-21T07:25:55;7.45;;;3.88;;
26864;SDS011;40618;51.166;10.322;2023-08-21T07:28:22;5.75;;;4.18;;
26864;SDS011;40618;51.166;10.322;2023-08-21T07:30:47;4.95;;;3.92;;
26864;SDS011;40618;51.166;10.322;2023-08-21T07:33:13;3.70;;;3.20;;
26864;SDS011;40618;51.166;10.322;2023-08-21T07:35:39;4.38;;;3.40;;
26864;SDS011;40618;51.166;10.322;2023-08-21T07:38:04;6.30;;;4.45;;
26864;SDS011;40618;51.166;10.322;2023-08-21T07:40:30;4.68;;;3.88;;
26864;SDS011;40618;51.166;10.322;2023-08-21T07:42:55;5.65;;;3.55;;
26864;SDS011;40618;51.166;10.322;2023-08-21T07:45:22;3.88;;;3.53;;
26864;SDS011;40618;51.166;10.322;2023-08-21T07:47:47;5.05;;;3.80;;
26864;SDS011;40618;51.166;10.322;2023-08-21T07:50:13;4.80;;;3.60;;
26864;SDS011;40618;51.166;10.322;2023-08-21T07:52:41;6.28;;;4.30;;
26864;SDS011;40618;51.166;10.322;2023-08-21T07:55:07;4.80;;;3.85;;
26864;SDS011;40618;51.166;10.322;2023-08-21T07:57:33;6.75;;;4.00;;
26864;SDS011;40618;51.166;10.322;2023-08-21T07:59:59;7.85;;;3.60;;
26864;SDS011;40618;51.166;10.322;2023-08-21T08:02:24;4.30;;;3.85;;
26864;SDS011;40618;51.166;10.322;2023-08-21T08:04:50;4.88;;;3.85;;
26864;SDS011;40618;51.166;10.322;2023-08-21T08:07:16;6.88;;;3.63;;
26864;SDS011;40618;51.166;10.322;2023-08-21T08:09:41;5.70;;;3.97;;
26864;SDS011;40618;51.166;10.322;2023-08-21T08:12:07;10.55;;;3.65;;
26864;SDS011;40618;51.166;10.322;2023-08-21T08:14:34;3.95;;;3.33;;
26864;SDS011;40618;51.166;10.322;2023-08-21T08:17:00;4.88;;;3.83;;
26864;SDS011;40618;51.166;10.322;2023-08-21T08:19:25;4.50;;;4.07;;
26864;SDS011;40618;51.166;10.322;2023-08-21T08:21:52;5.82;;;3.75;;
26864;SDS011;40618;51.166;10.322;2023-08-21T08:24:18;7.93;;;4.28;;
26864;SDS011;40618;51.166;10.322;2023-08-21T08:26:43;5.75;;;4.32;;
26864;SDS011;40618;51.166;10.322;2023-08-21T08:29:10;6.38;;;4.10;;
26864;SDS011;40618;51.166;10.322;2023-08-21T08:31:36;7.40;;;4.45;;
26864;SDS011;40618;51.166;10.322;2023-08-21T08:34:03;11.00;;;4.57;;
26864;SDS011;40618;51.166;10.322;2023-08-21T08:36:29;5.13;;;4.55;;
26864;SDS011;40618;51.166;10.322;2023-08-21T08:38:55;5.00;;;4.22;;
26864;SDS011;40618;51.166;10.322;2023-08-21T08:41:31;4.75;;;4.25;;
26864;SDS011;40618;51.166;10.322;2023-08-21T08:44:05;6.03;;;4.22;;
26864;SDS011;40618;51.166;10.322;2023-08-21T08:46:31;6.95;;;4.53;;
26864;SDS011;40618;51.166;10.322;2023-08-21T08:48:57;8.65;;;4.78;;
26864;SDS011;40618;51.166;10.322;2023-08-21T08:51:25;6.32;;;4.28;;
26864;SDS011;40618;51.166;10.322;2023-08-21T08:53:57;6.45;;;4.00;;
26864;SDS011;40618;51.166;10.322;2023-08-21T08:56:24;7.97;;;3.90;;
26864;SDS011;40618;51.166;10.322;2023-08-21T08:58:50;7.57;;;4.80;;
26864;SDS011;40618;51.166;10.322;2023-08-21T09:01:16;5.72;;;4.57;;
26864;SDS011;40618;51.166;10.322;2023-08-21T09:03:42;5.15;;;4.65;;
26864;SDS011;40618;51.166;10.322;2023-08-21T09:06:09;6.28;;;4.78;;
26864;SDS011;40618;51.166;10.322;2023-08-21T09:08:37;7.95;;;5.13;;
26864;SDS011;40618;51.166;10.322;2023-08-21T09:11:03;8.18;;;4.97;;
26864;SDS011;40618;51.166;10.322;2023-08-21T09:13:29;7.70;;;5.13;;
26864;SDS011;40618;51.166;10.322;2023-08-21T09:15:56;5.20;;;4.47;;
26864;SDS011;40618;51.166;10.322;2023-08-21T09:18:23;7.32;;;5.50;;
26864;SDS011;40618;51.166;10.322;2023-08-21T09:20:49;6.22;;;5.00;;
26864;SDS011;40618;51.166;10.322;2023-08-21T09:23:15;5.85;;;4.88;;
26864;SDS011;40618;51.166;10.322;2023-08-21T09:25:43;6.93;;;5.38;;
26864;SDS011;40618;51.166;10.322;2023-08-21T09:28:14;10.73;;;6.28;;
26864;SDS011;40618;51.166;10.322;2023-08-21T09:30:50;8.88;;;5.93;;
26864;SDS011;40618;51.166;10.322;2023-08-21T09:33:21;13.80;;;5.47;;
26864;SDS011;40618;51.166;10.322;2023-08-21T09:35:48;7.32;;;5.10;;
26864;SDS011;40618;51.166;10.322;2023-08-21T09:38:17;5.82;;;4.93;;
26864;SDS011;40618;51.166;10.322;2023-08-21T09:40:53;7.95;;;4.78;;
26864;SDS011;40618;51.166;10.322;2023-08-21T09:43:20;5.40;;;4.90;;
26864;SDS011;40618;51.166;10.322;2023-08-21T09:45:48;7.93;;;5.75;;
26864;SDS011;40618;51.166;10.322;2023-08-21T09:48:18;5.35;;;4.85;;
26864;SDS011;40618;51.166;10.322;2023-08-21T09:50:47;6.20;;;5.32;;
26864;SDS011;40618;51.166;10.322;2023-08-21T09:53:13;5.97;;;5.03;;
26864;SDS011;40618;51.166;10.322;2023-08-21T09:55:39;8.02;;;5.03;;
26864;SDS011;40618;51.166;10.322;2023-08-21T09:58:06;10.45;;;5.13;;
26864;SDS011;40618;51.166;10.322;2023-08-21T10:00:33;7.20;;;5.13;;
26864;SDS011;40618;51.166;10.322;2023-08-21T10:03:07;7.20;;;5.35;;
26864;SDS011;40618;51.166;10.322;2023-08-21T10:05:36;6.65;;;4.93;;
26864;SDS011;40618;51.166;10.322;2023-08-21T10:08:05;5.32;;;4.93;;
26864;SDS011;40618;51.166;10.322;2023-08-21T10:10:32;7.65;;;5.80;;
26864;SDS011;40618;51.166;10.322;2023-08-21T10:13:01;5.82;;;5.22;;
26864;SDS011;40618;51.166;10.322;2023-08-21T10:15:30;6.20;;;5.60;;
26864;SDS011;40618;51.166;10.322;2023-08-21T10:17:58;6.90;;;5.35;;
26864;SDS011;40618;51.166;10.322;2023-08-21T10:26:19;5.95;;;5.35;;
26864;SDS011;40618;51.166;10.322;2023-08-21T10:34:11;5.28;;;4.80;;
26864;SDS011;40618;51.166;10.322;2023-08-21T10:36:39;9.15;;;4.82;;
26864;SDS011;40618;51.166;10.322;2023-08-21T10:39:25;7.40;;;4.97;;
26864;SDS011;40618;51.166;10.322;2023-08-21T10:42:11;5.68;;;4.95;;
26864;SDS011;40618;51.166;10.322;2023-08-21T10:49:45;4.90;;;4.15;;
26864;SDS011;40618;51.166;10.322;2023-08-21T10:52:26;4.70;;;3.88;;
26864;SDS011;40618;51.166;10.322;2023-08-21T10:55:01;4.55;;;4.15;;
26864;SDS011;40618;51.166;10.322;2023-08-21T10:57:30;4.93;;;4.00;;
26864;SDS011;40618;51.166;10.322;2023-08-21T10:59:58;4.47;;;3.15;;
26864;SDS011;40618;51.166;10.322;2023-08-21T11:02:30;4.15;;;3.75;;
26864;SDS011;40618;51.166;10.322;2023-08-21T11:04:58;4.68;;;4.28;;
26864;SDS011;40618;51.166;10.322;2023-08-21T11:07:25;4.32;;;3.92;;
26864;SDS011;40618;51.166;10.322;2023-08-21T11:09:52;5.38;;;4.18;;
26864;SDS011;40618;51.166;10.322;2023-08-21T11:12:19;4.60;;;4.20;;
26864;SDS011;40618;51.166;10.322;2023-08-21T11:14:47;4.65;;;3.83;;
26864;SDS011;40618;51.166;10.322;2023-08-21T11:17:13;4.70;;;3.90;;
26864;SDS011;40618;51.166;10.322;2023-08-21T11:19:39;4.38;;;3.47;;
26864;SDS011;40618;51.166;10.322;2023-08-21T11:22:07;4.18;;;3.45;;
26864;SDS011;40618;51.166;10.322;2023-08-21T11:24:39;4.63;;;4.07;;
26864;SDS011;40618;51.166;10.322;2023-08-21T11:27:11;4.70;;;4.15;;
26864;SDS011;40618;51.166;10.322;2023-08-21T11:29:46;5.85;;;4.10;;
26864;SDS011;40618;51.166;10.322;2023-08-21T11:34:48;5.15;;;4.10;;
26864;SDS011;40618;51.166;10.322;2023-08-21T11:37:22;5.00;;;4.22;;
26864;SDS011;40618;51.166;10.322;2023-08-21T11:39:56;6.78;;;3.92;;
26864;SDS011;40618;51.166;10.322;2023-08-21T11:42:30;6.22;;;4.22;;
26864;SDS011;40618;51.166;10.322;2023-08-21T11:44:58;3.95;;;3.63;;
26864;SDS011;40618;51.166;10.322;2023-08-21T11:47:30;10.40;;;4.65;;
26864;SDS011;40618;51.166;10.322;2023-08-21T11:50:01;5.85;;;4.38;;
26864;SDS011;40618;51.166;10.322;2023-08-21T11:52:30;3.78;;;3.42;;
26864;SDS011;40618;51.166;10.322;2023-08-21T11:54:57;5.47;;;3.40;;
26864;SDS011;40618;51.166;10.322;2023-08-21T11:57:22;6.20;;;3.70;;
26864;SDS011;40618;51.166;10.322;2023-08-21T11:59:49;4.22;;;3.83;;
26864;SDS011;40618;51.166;10.322;2023-08-21T12:02:26;7.43;;;4.15;;
26864;SDS011;40618;51.166;10.322;2023-08-21T12:04:54;4.15;;;3.75;;
26864;SDS011;40618;51.166;10.322;2023-08-21T12:07:27;3.53;;;3.22;;
26864;SDS011;40618;51.166;10.322;2023-08-21T12:09:53;3.35;;;3.05;;
26864;SDS011;40618;51.166;10.322;2023-08-21T12:12:18;3.20;;;2.90;;
26864;SDS011;40618;51.166;10.322;2023-08-21T12:14:44;3.33;;;3.03;;
26864;SDS011;40618;51.166;10.322;2023-08-21T12:17:10;3.35;;;2.92;;
26864;SDS011;40618;51.166;10.322;2023-08-21T12:19:36;4.30;;;3.45;;
26864;SDS011;40618;51.166;10.322;2023-08-21T12:22:02;7.97;;;3.88;;
26864;SDS011;40618;51.166;10.322;2023-08-21T12:24:28;3.85;;;3.30;;
26864;SDS011;40618;51.166;10.322;2023-08-21T12:26:55;5.53;;;3.22;;
26864;SDS011;40618;51.166;10.322;2023-08-21T12:29:21;4.93;;;3.88;;
26864;SDS011;40618;51.166;10.322;2023-08-21T12:31:46;7.75;;;3.78;;
26864;SDS011;40618;51.166;10.322;2023-08-21T12:34:12;7.45;;;3.80;;
26864;SDS011;40618;51.166;10.322;2023-08-21T12:36:38;4.90;;;3.45;;
26864;SDS011;40618;51.166;10.322;2023-08-21T12:39:05;4.30;;;3.78;;
26864;SDS011;40618;51.166;10.322;2023-08-21T12:41:31;4.32;;;3.10;;
26864;SDS011;40618;51.166;10.322;2023-08-21T12:43:58;15.60;;;4.00;;
26864;SDS011;40618;51.166;10.322;2023-08-21T12:46:25;9.57;;;3.40;;
26864;SDS011;40618;51.166;10.322;2023-08-21T12:48:54;3.92;;;3.50;;
26864;SDS011;40618;51.166;10.322;2023-08-21T12:51:21;3.78;;;3.38;;
26864;SDS011;40618;51.166;10.322;2023-08-21T12:53:46;4.15;;;3.40;;
26864;SDS011;40618;51.166;10.322;2023-08-21T12:56:12;6.22;;;3.78;;
26864;SDS011;40618;51.166;10.322;2023-08-21T12:58:38;11.43;;;3.70;;
26864;SDS011;40618;51.166;10.322;2023-08-21T13:01:04;3.35;;;3.00;;
26864;SDS011;40618;51.166;10.322;2023-08-21T13:03:30;10.45;;;3.90;;
26864;SDS011;40618;51.166;10.322;2023-08-21T13:05:58;4.38;;;3.03;;
26864;SDS011;40618;51.166;10.322;2023-08-21T13:08:23;4.57;;;3.08;;
26864;SDS011;40618;51.166;10.322;2023-08-21T13:10:49;3.85;;;3.47;;
26864;SDS011;40618;51.166;10.322;2023-08-21T13:13:15;3.42;;;3.13;;
26864;SDS011;40618;51.166;10.322;2023-08-21T13:15:41;4.05;;;3.38;;
26864;SDS011;40618;51.166;10.322;2023-08-21T13:18:09;4.03;;;3.17;;
26864;SDS011;40618;51.166;10.322;2023-08-21T13:20:36;4.70;;;3.53;;
26864;SDS011;40618;51.166;10.322;2023-08-21T13:23:01;4.05;;;3.45;;
26864;SDS011;40618;51.166;10.322;2023-08-21T13:25:28;7.32;;;3.67;;
26864;SDS011;40618;51.166;10.322;2023-08-21T13:27:55;3.92;;;3.40;;
26864;SDS011;40618;51.166;10.322;2023-08-21T13:30:21;4.43;;;3.03;;
26864;SDS011;40618;51.166;10.322;2023-08-21T13:32:48;3.75;;;3.15;;
26864;SDS011;40618;51.166;10.322;2023-08-21T13:35:14;5.50;;;3.15;;
26864;SDS011;40618;51.166;10.322;2023-08-21T13:37:40;4.57;;;3.40;;
26864;SDS011;40618;51.166;10.322;2023-08-21T13:40:06;3.40;;;3.08;;
26864;SDS011;40618;51.166;10.322;2023-08-21T13:42:38;4.00;;;2.70;;
26864;SDS011;40618;51.166;10.322;2023-08-21T13:45:09;3.50;;;3.20;;
26864;SDS011;40618;51.166;10.322;2023-08-21T13:47:45;4.45;;;3.50;;
26864;SDS011;40618;51.166;10.322;2023-08-21T13:50:14;3.50;;;3.03;;
26864;SDS011;40618;51.166;10.322;2023-08-21T13:52:42;5.13;;;3.10;;
26864;SDS011;40618;51.166;10.322;2023-08-21T13:55:08;4.13;;;3.05;;
26864;SDS011;40618;51.166;10.322;2023-08-21T13:57:36;3.95;;;3.40;;
26864;SDS011;40618;51.166;10.322;2023-08-21T14:00:03;4.03;;;3.42;;
26864;SDS011;40618;51.166;10.322;2023-08-21T14:02:37;5.97;;;3.08;;
26864;SDS011;40618;51.166;10.322;2023-08-21T14:05:05;5.13;;;3.03;;
26864;SDS011;40618;51.166;10.322;2023-08-21T14:07:31;4.22;;;3.22;;
26864;SDS011;40618;51.166;10.322;2023-08-21T14:09:57;4.55;;;3.38;;
26864;SDS011;40618;51.166;10.322;2023-08-21T14:12:23;5.85;;;3.20;;
26864;SDS011;40618;51.166;10.322;2023-08-21T14:14:49;4.90;;;3.03;;
26864;SDS011;40618;51.166;10.322;2023-08-21T14:17:15;3.90;;;3.20;;
26864;SDS011;40618;51.166;10.322;2023-08-21T14:19:41;3.67;;;3.20;;
26864;SDS011;40618;51.166;10.322;2023-08-21T14:22:07;3.22;;;2.92;;
26864;SDS011;40618;51.166;10.322;2023-08-21T14:24:33;5.18;;;3.00;;
26864;SDS011;40618;51.166;10.322;2023-08-21T14:26:58;6.68;;;3.00;;
26864;SDS011;40618;51.166;10.322;2023-08-21T14:29:24;8.27;;;3.13;;
26864;SDS011;40618;51.166;10.322;2023-08-21T14:31:50;6.25;;;3.03;;
26864;SDS011;40618;51.166;10.322;2023-08-21T14:34:18;3.47;;;2.85;;
26864;SDS011;40618;51.166;10.322;2023-08-21T14:36:45;2.83;;;2.63;;
26864;SDS011;40618;51.166;10.322;2023-08-21T14:39:14;3.90;;;2.78;;
26864;SDS011;40618;51.166;10.322;2023-08-21T14:41:41;3.03;;;2.40;;
26864;SDS011;40618;51.166;10.322;2023-08-21T14:44:08;2.58;;;2.38;;
26864;SDS011;40618;51.166;10.322;2023-08-21T14:46:35;3.25;;;2.65;;
26864;SDS011;40618;51.166;10.322;2023-08-21T14:49:01;4.00;;;2.80;;
26864;SDS011;40618;51.166;10.322;2023-08-21T14:51:27;7.15;;;2.78;;
26864;SDS011;40618;51.166;10.322;2023-08-21T14:53:56;2.88;;;2.67;;